createdAt,value
2017-02-06T00:00:28.150Z,0
2017-02-06T00:01:28.153Z,0
2017-02-06T00:02:28.284Z,0
2017-02-06T00:03:28.076Z,0
2017-02-06T00:04:28.089Z,0
2017-02-06T00:05:28.187Z,0
2017-02-06T00:06:28.263Z,0
2017-02-06T00:07:28.238Z,0
2017-02-06T00:08:28.138Z,0
2017-02-06T00:09:28.154Z,0
2017-02-06T00:10:28.288Z,0
2017-02-06T00:11:28.180Z,0
2017-02-06T00:12:28.189Z,0
2017-02-06T00:13:28.215Z,0
2017-02-06T00:14:28.312Z,0
2017-02-06T00:15:28.364Z,0
2017-02-06T00:16:27.847Z,0
2017-02-06T00:17:28.259Z,0
2017-02-06T00:18:28.381Z,0
2017-02-06T00:19:28.280Z,0
2017-02-06T00:20:28.394Z,0
2017-02-06T00:21:28.529Z,0
2017-02-06T00:22:28.443Z,0
2017-02-06T00:23:28.338Z,0
2017-02-06T00:24:28.355Z,0
2017-02-06T00:25:28.368Z,0
2017-02-06T00:26:28.229Z,0
2017-02-06T00:27:28.391Z,0
2017-02-06T00:28:28.408Z,0
2017-02-06T00:29:28.434Z,0
2017-02-06T00:30:28.549Z,0
2017-02-06T00:31:28.560Z,0
2017-02-06T00:32:28.584Z,0
2017-02-06T00:33:28.591Z,0
2017-02-06T00:34:28.487Z,0
2017-02-06T00:35:28.509Z,0
2017-02-06T00:36:28.627Z,0
2017-02-06T00:37:28.535Z,0
2017-02-06T00:38:28.545Z,0
2017-02-06T00:39:28.664Z,0
2017-02-06T00:40:28.572Z,0
2017-02-06T00:41:28.694Z,0
2017-02-06T00:42:28.588Z,0
2017-02-06T00:43:28.669Z,0
2017-02-06T00:44:28.819Z,0
2017-02-06T00:45:28.640Z,0
2017-02-06T00:46:28.639Z,0
2017-02-06T00:47:28.662Z,0
2017-02-06T00:48:28.284Z,0
2017-02-06T00:49:28.806Z,0
2017-02-06T00:50:28.461Z,0
2017-02-06T00:51:28.714Z,0
2017-02-06T00:52:28.333Z,0
2017-02-06T00:53:28.884Z,0
2017-02-06T00:54:28.760Z,0
2017-02-06T00:55:28.393Z,0
2017-02-06T00:56:28.493Z,0
2017-02-06T00:57:28.395Z,0
2017-02-06T00:58:28.805Z,0
2017-02-06T00:59:28.534Z,0
2017-02-06T01:00:28.440Z,0
2017-02-06T01:01:28.847Z,0
2017-02-06T01:02:28.949Z,0
2017-02-06T01:03:28.959Z,0
2017-02-06T01:04:28.889Z,0
2017-02-06T01:05:28.626Z,0
2017-02-06T01:06:28.524Z,0
2017-02-06T01:07:28.529Z,0
2017-02-06T01:08:29.028Z,0
2017-02-06T01:09:28.616Z,0
2017-02-06T01:10:28.964Z,0
2017-02-06T01:11:28.981Z,0
2017-02-06T01:12:29.199Z,0
2017-02-06T01:13:29.006Z,0
2017-02-06T01:14:29.019Z,0
2017-02-06T01:15:28.690Z,0
2017-02-06T01:16:29.051Z,0
2017-02-06T01:17:29.170Z,0
2017-02-06T01:18:29.067Z,0
2017-02-06T01:19:29.085Z,0
2017-02-06T01:20:28.717Z,0
2017-02-06T01:21:29.106Z,0
2017-02-06T01:22:29.240Z,0
2017-02-06T01:23:29.138Z,0
2017-02-06T01:24:29.156Z,0
2017-02-06T01:25:29.283Z,0
2017-02-06T01:26:29.180Z,0
2017-02-06T01:27:29.191Z,0
2017-02-06T01:28:28.414Z,0
2017-02-06T01:29:29.216Z,0
2017-02-06T01:30:28.833Z,0
2017-02-06T01:31:28.452Z,0
2017-02-06T01:32:28.859Z,0
2017-02-06T01:33:29.264Z,0
2017-02-06T01:34:29.284Z,0
2017-02-06T01:35:29.299Z,0
2017-02-06T01:36:29.312Z,0
2017-02-06T01:37:29.322Z,0
2017-02-06T01:38:29.335Z,0
2017-02-06T01:39:29.346Z,0
2017-02-06T01:40:28.963Z,0
2017-02-06T01:41:29.373Z,0
2017-02-06T01:42:29.389Z,0
2017-02-06T01:43:29.396Z,0
2017-02-06T01:44:29.411Z,0
2017-02-06T01:45:29.426Z,0
2017-02-06T01:46:29.422Z,0
2017-02-06T01:47:29.440Z,0
2017-02-06T01:48:29.457Z,0
2017-02-06T01:49:29.464Z,0
2017-02-06T01:50:29.475Z,0
2017-02-06T01:51:29.492Z,0
2017-02-06T01:52:29.506Z,0
2017-02-06T01:53:29.516Z,0
2017-02-06T01:54:29.525Z,0
2017-02-06T01:55:29.545Z,0
2017-02-06T01:56:29.562Z,0
2017-02-06T01:57:29.591Z,0
2017-02-06T01:58:29.587Z,0
2017-02-06T01:59:29.600Z,0
2017-02-06T02:00:29.613Z,0
2017-02-06T02:01:29.626Z,0
2017-02-06T02:02:29.644Z,0
2017-02-06T02:03:29.657Z,0
2017-02-06T02:04:29.668Z,0
2017-02-06T02:05:29.676Z,0
2017-02-06T02:06:29.691Z,0
2017-02-06T02:07:29.705Z,0
2017-02-06T02:08:29.717Z,0
2017-02-06T02:09:29.733Z,0
2017-02-06T02:10:29.388Z,0
2017-02-06T02:11:29.765Z,0
2017-02-06T02:12:29.765Z,0
2017-02-06T02:13:29.782Z,0
2017-02-06T02:14:29.793Z,0
2017-02-06T02:15:29.812Z,0
2017-02-06T02:16:29.821Z,0
2017-02-06T02:17:29.833Z,0
2017-02-06T02:18:29.847Z,0
2017-02-06T02:19:29.856Z,0
2017-02-06T02:20:29.870Z,0
2017-02-06T02:21:29.886Z,0
2017-02-06T02:22:29.898Z,0
2017-02-06T02:23:29.951Z,0
2017-02-06T02:24:29.529Z,0
2017-02-06T02:25:29.940Z,0
2017-02-06T02:26:29.949Z,0
2017-02-06T02:27:29.969Z,0
2017-02-06T02:28:29.977Z,0
2017-02-06T02:29:29.988Z,0
2017-02-06T02:30:30.003Z,0
2017-02-06T02:31:30.012Z,0
2017-02-06T02:32:30.028Z,0
2017-02-06T02:33:30.043Z,0
2017-02-06T02:34:30.054Z,0
2017-02-06T02:35:30.073Z,0
2017-02-06T02:36:30.076Z,0
2017-02-06T02:37:29.698Z,0
2017-02-06T02:38:30.113Z,0
2017-02-06T02:39:30.118Z,0
2017-02-06T02:40:30.132Z,0
2017-02-06T02:41:30.141Z,0
2017-02-06T02:42:30.158Z,0
2017-02-06T02:43:30.167Z,0
2017-02-06T02:44:30.186Z,0
2017-02-06T02:45:30.198Z,0
2017-02-06T02:46:29.816Z,0
2017-02-06T02:47:30.219Z,0
2017-02-06T02:48:30.232Z,0
2017-02-06T02:49:30.249Z,0
2017-02-06T02:50:30.262Z,0
2017-02-06T02:51:30.272Z,0
2017-02-06T02:52:30.288Z,0
2017-02-06T02:53:30.302Z,0
2017-02-06T02:54:30.311Z,0
2017-02-06T02:55:30.327Z,0
2017-02-06T02:56:30.338Z,0
2017-02-06T02:57:30.349Z,0
2017-02-06T02:58:30.367Z,0
2017-02-06T02:59:30.378Z,0
2017-02-06T03:00:30.440Z,0
2017-02-06T03:01:30.404Z,0
2017-02-06T03:02:30.416Z,0
2017-02-06T03:03:30.443Z,0
2017-02-06T03:04:30.447Z,0
2017-02-06T03:05:30.458Z,0
2017-02-06T03:06:30.541Z,0
2017-02-06T03:07:30.485Z,0
2017-02-06T03:08:30.495Z,0
2017-02-06T03:09:30.508Z,0
2017-02-06T03:10:30.520Z,0
2017-02-06T03:11:30.541Z,0
2017-02-06T03:12:30.550Z,0
2017-02-06T03:13:30.561Z,0
2017-02-06T03:14:30.568Z,0
2017-02-06T03:15:30.589Z,0
2017-02-06T03:16:30.603Z,0
2017-02-06T03:17:30.647Z,0
2017-02-06T03:18:30.627Z,0
2017-02-06T03:19:30.637Z,0
2017-02-06T03:20:30.294Z,0
2017-02-06T03:21:30.740Z,0
2017-02-06T03:22:30.677Z,0
2017-02-06T03:23:30.682Z,0
2017-02-06T03:24:30.703Z,0
2017-02-06T03:25:30.721Z,0
2017-02-06T03:26:30.734Z,0
2017-02-06T03:27:30.743Z,0
2017-02-06T03:28:30.752Z,0
2017-02-06T03:29:30.771Z,0
2017-02-06T03:30:30.778Z,0
2017-02-06T03:31:30.795Z,0
2017-02-06T03:32:30.806Z,0
2017-02-06T03:33:30.827Z,0
2017-02-06T03:34:30.832Z,0
2017-02-06T03:35:30.844Z,0
2017-02-06T03:36:30.858Z,0
2017-02-06T03:37:30.871Z,0
2017-02-06T03:38:30.888Z,0
2017-02-06T03:39:30.894Z,0
2017-02-06T03:40:30.912Z,0
2017-02-06T03:41:30.927Z,0
2017-02-06T03:42:30.938Z,0
2017-02-06T03:43:30.950Z,0
2017-02-06T03:44:30.962Z,0
2017-02-06T03:45:30.977Z,0
2017-02-06T03:46:30.984Z,0
2017-02-06T03:47:31.003Z,0
2017-02-06T03:48:31.018Z,0
2017-02-06T03:49:31.030Z,0
2017-02-06T03:50:31.036Z,0
2017-02-06T03:51:31.053Z,0
2017-02-06T03:52:31.068Z,0
2017-02-06T03:53:31.080Z,0
2017-02-06T03:54:31.091Z,0
2017-02-06T03:55:31.109Z,0
2017-02-06T03:56:30.722Z,0
2017-02-06T03:57:31.143Z,0
2017-02-06T03:58:31.148Z,0
2017-02-06T03:59:30.762Z,0
2017-02-06T04:00:31.170Z,0
2017-02-06T04:01:31.181Z,0
2017-02-06T04:02:31.205Z,0
2017-02-06T04:03:31.211Z,0
2017-02-06T04:04:31.221Z,0
2017-02-06T04:05:31.235Z,0
2017-02-06T04:06:31.247Z,0
2017-02-06T04:07:31.266Z,0
2017-02-06T04:08:31.273Z,0
2017-02-06T04:09:31.288Z,0
2017-02-06T04:10:31.342Z,0
2017-02-06T04:11:31.313Z,0
2017-02-06T04:12:31.324Z,0
2017-02-06T04:13:31.336Z,0
2017-02-06T04:14:31.351Z,0
2017-02-06T04:15:31.359Z,0
2017-02-06T04:16:31.376Z,0
2017-02-06T04:17:31.390Z,0
2017-02-06T04:18:31.002Z,0
2017-02-06T04:19:31.025Z,0
2017-02-06T04:20:31.034Z,0
2017-02-06T04:21:31.439Z,0
2017-02-06T04:22:31.059Z,0
2017-02-06T04:23:31.072Z,0
2017-02-06T04:24:31.481Z,0
2017-02-06T04:25:31.488Z,0
2017-02-06T04:26:31.110Z,0
2017-02-06T04:27:31.522Z,0
2017-02-06T04:28:31.136Z,0
2017-02-06T04:29:31.552Z,0
2017-02-06T04:30:31.557Z,0
2017-02-06T04:31:31.565Z,0
2017-02-06T04:32:31.580Z,0
2017-02-06T04:33:31.199Z,0
2017-02-06T04:34:31.213Z,0
2017-02-06T04:35:31.621Z,0
2017-02-06T04:36:31.631Z,0
2017-02-06T04:37:31.251Z,0
2017-02-06T04:38:31.659Z,0
2017-02-06T04:39:31.669Z,0
2017-02-06T04:40:31.290Z,0
2017-02-06T04:41:31.701Z,0
2017-02-06T04:42:31.754Z,0
2017-02-06T04:43:31.330Z,0
2017-02-06T04:44:31.740Z,0
2017-02-06T04:45:31.792Z,0
2017-02-06T04:46:31.760Z,0
2017-02-06T04:47:31.767Z,0
2017-02-06T04:48:31.790Z,0
2017-02-06T04:49:31.804Z,0
2017-02-06T04:50:31.819Z,0
2017-02-06T04:51:31.432Z,0
2017-02-06T04:52:31.834Z,0
2017-02-06T04:53:31.847Z,0
2017-02-06T04:54:31.866Z,0
2017-02-06T04:55:31.881Z,0
2017-02-06T04:56:31.887Z,0
2017-02-06T04:57:31.904Z,0
2017-02-06T04:58:31.918Z,0
2017-02-06T04:59:31.937Z,0
2017-02-06T05:00:31.552Z,0
2017-02-06T05:01:31.958Z,0
2017-02-06T05:02:31.967Z,0
2017-02-06T05:03:31.980Z,0
2017-02-06T05:04:31.992Z,0
2017-02-06T05:05:31.605Z,0
2017-02-06T05:06:32.018Z,0
2017-02-06T05:07:32.030Z,0
2017-02-06T05:08:32.040Z,0
2017-02-06T05:09:32.108Z,0
2017-02-06T05:10:32.070Z,0
2017-02-06T05:11:32.085Z,0
2017-02-06T05:12:32.096Z,0
2017-02-06T05:13:32.104Z,0
2017-02-06T05:14:32.117Z,0
2017-02-06T05:15:31.345Z,0
2017-02-06T05:16:32.146Z,0
2017-02-06T05:17:32.157Z,0
2017-02-06T05:18:32.166Z,0
2017-02-06T05:19:32.183Z,0
2017-02-06T05:20:32.192Z,0
2017-02-06T05:21:31.814Z,0
2017-02-06T05:22:31.827Z,0
2017-02-06T05:23:32.234Z,0
2017-02-06T05:24:31.858Z,0
2017-02-06T05:25:32.265Z,0
2017-02-06T05:26:31.488Z,0
2017-02-06T05:27:31.893Z,0
2017-02-06T05:28:32.295Z,0
2017-02-06T05:29:31.917Z,0
2017-02-06T05:30:32.324Z,0
2017-02-06T05:31:32.343Z,0
2017-02-06T05:32:32.351Z,0
2017-02-06T05:33:32.366Z,0
2017-02-06T05:34:32.543Z,0
2017-02-06T05:35:32.533Z,0
2017-02-06T05:36:32.405Z,0
2017-02-06T05:37:32.416Z,0
2017-02-06T05:38:32.535Z,0
2017-02-06T05:39:32.484Z,0
2017-02-06T05:40:32.455Z,0
2017-02-06T05:41:32.462Z,0
2017-02-06T05:42:32.476Z,0
2017-02-06T05:43:32.497Z,0
2017-02-06T05:44:32.206Z,0
2017-02-06T05:45:32.627Z,0
2017-02-06T05:46:32.526Z,0
2017-02-06T05:47:32.145Z,0
2017-02-06T05:48:32.251Z,0
2017-02-06T05:49:32.680Z,0
2017-02-06T05:50:32.711Z,0
2017-02-06T05:51:32.704Z,0
2017-02-06T05:52:32.608Z,0
2017-02-06T05:53:32.632Z,0
2017-02-06T05:54:32.632Z,0
2017-02-06T05:55:32.641Z,0
2017-02-06T05:56:32.704Z,0
2017-02-06T05:57:32.672Z,0
2017-02-06T05:58:32.793Z,0
2017-02-06T05:59:32.299Z,0
2017-02-06T06:00:32.820Z,0
2017-02-06T06:01:32.450Z,0
2017-02-06T06:02:32.731Z,0
2017-02-06T06:03:32.903Z,0
2017-02-06T06:04:32.873Z,0
2017-02-06T06:05:32.770Z,0
2017-02-06T06:06:32.845Z,0
2017-02-06T06:07:32.914Z,0
2017-02-06T06:08:32.937Z,0
2017-02-06T06:09:32.823Z,0
2017-02-06T06:10:32.938Z,0
2017-02-06T06:11:32.969Z,0
2017-02-06T06:12:32.987Z,0
2017-02-06T06:13:32.944Z,0
2017-02-06T06:14:32.884Z,0
2017-02-06T06:15:32.901Z,0
2017-02-06T06:16:32.996Z,0
2017-02-06T06:17:32.927Z,0
2017-02-06T06:18:32.936Z,0
2017-02-06T06:19:33.045Z,0
2017-02-06T06:20:33.078Z,0
2017-02-06T06:21:32.689Z,0
2017-02-06T06:22:33.096Z,0
2017-02-06T06:23:33.115Z,0
2017-02-06T06:24:33.083Z,0
2017-02-06T06:25:32.633Z,0
2017-02-06T06:26:33.088Z,0
2017-02-06T06:27:32.654Z,0
2017-02-06T06:28:33.057Z,0
2017-02-06T06:29:33.201Z,0
2017-02-06T06:30:32.693Z,0
2017-02-06T06:31:32.702Z,0
2017-02-06T06:32:33.112Z,0
2017-02-06T06:33:33.128Z,4
2017-02-06T06:34:33.135Z,4
2017-02-06T06:35:32.868Z,4
2017-02-06T06:36:33.167Z,0
2017-02-06T06:37:33.185Z,4
2017-02-06T06:38:33.274Z,4
2017-02-06T06:39:33.203Z,4
2017-02-06T06:40:33.214Z,4
2017-02-06T06:41:33.231Z,4
2017-02-06T06:42:32.843Z,4
2017-02-06T06:43:33.252Z,4
2017-02-06T06:44:33.262Z,4
2017-02-06T06:45:33.487Z,8
2017-02-06T06:46:33.286Z,8
2017-02-06T06:47:32.939Z,8
2017-02-06T06:48:33.309Z,12
2017-02-06T06:49:33.322Z,12
2017-02-06T06:50:33.430Z,8
2017-02-06T06:51:33.357Z,12
2017-02-06T06:52:33.363Z,12
2017-02-06T06:53:33.379Z,16
2017-02-06T06:54:33.392Z,12
2017-02-06T06:55:33.519Z,16
2017-02-06T06:56:33.417Z,16
2017-02-06T06:57:33.432Z,16
2017-02-06T06:58:33.442Z,16
2017-02-06T06:59:33.461Z,16
2017-02-06T07:00:33.502Z,20
2017-02-06T07:01:33.478Z,20
2017-02-06T07:02:33.608Z,20
2017-02-06T07:03:33.514Z,20
2017-02-06T07:04:33.510Z,24
2017-02-06T07:05:33.528Z,24
2017-02-06T07:06:33.539Z,28
2017-02-06T07:07:33.550Z,28
2017-02-06T07:08:33.745Z,32
2017-02-06T07:09:33.674Z,32
2017-02-06T07:10:33.593Z,36
2017-02-06T07:11:33.605Z,36
2017-02-06T07:12:33.622Z,40
2017-02-06T07:13:33.632Z,44
2017-02-06T07:14:33.638Z,44
2017-02-06T07:15:33.649Z,44
2017-02-06T07:16:33.665Z,44
2017-02-06T07:17:33.682Z,48
2017-02-06T07:18:33.694Z,48
2017-02-06T07:19:33.824Z,52
2017-02-06T07:20:33.902Z,56
2017-02-06T07:21:33.735Z,56
2017-02-06T07:22:33.859Z,56
2017-02-06T07:23:33.764Z,60
2017-02-06T07:24:33.777Z,60
2017-02-06T07:25:33.096Z,64
2017-02-06T07:26:33.793Z,64
2017-02-06T07:27:33.806Z,72
2017-02-06T07:28:33.818Z,76
2017-02-06T07:29:33.829Z,80
2017-02-06T07:30:33.843Z,88
2017-02-06T07:31:33.858Z,84
2017-02-06T07:32:33.925Z,88
2017-02-06T07:33:33.482Z,84
2017-02-06T07:34:33.888Z,88
2017-02-06T07:35:33.982Z,88
2017-02-06T07:36:33.565Z,88
2017-02-06T07:37:33.929Z,84
2017-02-06T07:38:33.946Z,84
2017-02-06T07:39:33.679Z,88
2017-02-06T07:40:33.619Z,88
2017-02-06T07:41:34.073Z,92
2017-02-06T07:42:33.600Z,96
2017-02-06T07:43:33.617Z,96
2017-02-06T07:44:34.016Z,96
2017-02-06T07:45:33.245Z,92
2017-02-06T07:46:33.671Z,96
2017-02-06T07:47:32.906Z,96
2017-02-06T07:48:33.672Z,100
2017-02-06T07:49:33.683Z,100
2017-02-06T07:50:33.816Z,104
2017-02-06T07:51:33.711Z,104
2017-02-06T07:52:33.721Z,104
2017-02-06T07:53:33.732Z,104
2017-02-06T07:54:33.753Z,108
2017-02-06T07:55:33.757Z,108
2017-02-06T07:56:33.771Z,108
2017-02-06T07:57:33.784Z,100
2017-02-06T07:58:33.798Z,104
2017-02-06T07:59:34.209Z,100
2017-02-06T08:00:33.826Z,112
2017-02-06T08:01:33.836Z,108
2017-02-06T08:02:34.240Z,112
2017-02-06T08:03:34.259Z,112
2017-02-06T08:04:34.263Z,108
2017-02-06T08:05:34.373Z,104
2017-02-06T08:06:33.896Z,100
2017-02-06T08:07:34.308Z,100
2017-02-06T08:08:34.315Z,112
2017-02-06T08:09:33.541Z,112
2017-02-06T08:10:34.352Z,120
2017-02-06T08:11:34.355Z,116
2017-02-06T08:12:34.368Z,112
2017-02-06T08:13:34.384Z,112
2017-02-06T08:14:34.401Z,112
2017-02-06T08:15:34.417Z,112
2017-02-06T08:16:34.420Z,120
2017-02-06T08:17:34.034Z,108
2017-02-06T08:18:34.443Z,108
2017-02-06T08:19:34.460Z,108
2017-02-06T08:20:34.076Z,112
2017-02-06T08:21:34.493Z,116
2017-02-06T08:22:34.100Z,112
2017-02-06T08:23:34.506Z,116
2017-02-06T08:24:34.516Z,124
2017-02-06T08:25:34.240Z,120
2017-02-06T08:26:34.543Z,132
2017-02-06T08:27:34.556Z,124
2017-02-06T08:28:34.569Z,132
2017-02-06T08:29:34.390Z,136
2017-02-06T08:30:34.593Z,144
2017-02-06T08:31:34.212Z,140
2017-02-06T08:32:34.619Z,140
2017-02-06T08:33:34.657Z,152
2017-02-06T08:34:34.640Z,144
2017-02-06T08:35:34.660Z,156
2017-02-06T08:36:34.665Z,152
2017-02-06T08:37:34.682Z,164
2017-02-06T08:38:34.703Z,180
2017-02-06T08:39:34.709Z,168
2017-02-06T08:40:34.721Z,156
2017-02-06T08:41:34.342Z,148
2017-02-06T08:42:34.748Z,160
2017-02-06T08:43:34.758Z,164
2017-02-06T08:44:34.765Z,172
2017-02-06T08:45:34.995Z,196
2017-02-06T08:46:34.798Z,196
2017-02-06T08:47:34.924Z,204
2017-02-06T08:48:34.571Z,188
2017-02-06T08:49:34.834Z,192
2017-02-06T08:50:34.448Z,184
2017-02-06T08:51:34.863Z,172
2017-02-06T08:52:34.474Z,164
2017-02-06T08:53:34.967Z,184
2017-02-06T08:54:34.902Z,188
2017-02-06T08:55:34.667Z,168
2017-02-06T08:56:34.646Z,176
2017-02-06T08:57:34.937Z,172
2017-02-06T08:58:34.945Z,172
2017-02-06T08:59:34.964Z,164
2017-02-06T09:00:35.089Z,176
2017-02-06T09:01:34.980Z,180
2017-02-06T09:02:35.000Z,184
2017-02-06T09:03:35.120Z,180
2017-02-06T09:04:35.136Z,180
2017-02-06T09:05:35.035Z,208
2017-02-06T09:06:35.103Z,232
2017-02-06T09:07:34.663Z,236
2017-02-06T09:08:34.672Z,228
2017-02-06T09:09:35.086Z,208
2017-02-06T09:10:35.097Z,252
2017-02-06T09:11:35.116Z,248
2017-02-06T09:12:35.224Z,236
2017-02-06T09:13:35.132Z,236
2017-02-06T09:14:35.193Z,220
2017-02-06T09:15:35.172Z,228
2017-02-06T09:16:35.171Z,240
2017-02-06T09:17:34.800Z,228
2017-02-06T09:18:35.201Z,232
2017-02-06T09:19:35.214Z,260
2017-02-06T09:20:35.224Z,244
2017-02-06T09:21:35.277Z,248
2017-02-06T09:22:35.249Z,236
2017-02-06T09:23:35.459Z,232
2017-02-06T09:24:35.271Z,236
2017-02-06T09:25:35.407Z,232
2017-02-06T09:26:35.477Z,252
2017-02-06T09:27:35.311Z,240
2017-02-06T09:28:35.546Z,256
2017-02-06T09:29:35.336Z,296
2017-02-06T09:30:35.403Z,296
2017-02-06T09:31:35.370Z,280
2017-02-06T09:32:35.367Z,280
2017-02-06T09:33:35.388Z,296
2017-02-06T09:34:35.608Z,300
2017-02-06T09:35:35.546Z,268
2017-02-06T09:36:35.026Z,308
2017-02-06T09:37:35.437Z,324
2017-02-06T09:38:35.557Z,304
2017-02-06T09:39:35.459Z,316
2017-02-06T09:40:35.619Z,316
2017-02-06T09:41:35.596Z,320
2017-02-06T09:42:35.496Z,312
2017-02-06T09:43:35.514Z,336
2017-02-06T09:44:35.642Z,340
2017-02-06T09:45:35.533Z,376
2017-02-06T09:46:35.550Z,384
2017-02-06T09:47:35.582Z,352
2017-02-06T09:48:35.571Z,344
2017-02-06T09:49:35.589Z,372
2017-02-06T09:50:35.645Z,380
2017-02-06T09:51:35.669Z,376
2017-02-06T09:52:35.664Z,364
2017-02-06T09:53:35.664Z,356
2017-02-06T09:54:35.672Z,348
2017-02-06T09:55:35.757Z,368
2017-02-06T09:56:35.680Z,376
2017-02-06T09:57:35.685Z,348
2017-02-06T09:58:35.700Z,376
2017-02-06T09:59:35.723Z,372
2017-02-06T10:00:35.731Z,364
2017-02-06T10:01:35.740Z,372
2017-02-06T10:02:35.764Z,484
2017-02-06T10:03:35.773Z,464
2017-02-06T10:04:35.882Z,436
2017-02-06T10:05:35.888Z,376
2017-02-06T10:06:35.406Z,604
2017-02-06T10:07:35.418Z,608
2017-02-06T10:08:35.432Z,468
2017-02-06T10:09:35.445Z,444
2017-02-06T10:10:35.952Z,384
2017-02-06T10:11:35.475Z,416
2017-02-06T10:12:35.484Z,440
2017-02-06T10:13:35.490Z,496
2017-02-06T10:14:35.513Z,412
2017-02-06T10:15:35.986Z,404
2017-02-06T10:16:35.996Z,396
2017-02-06T10:17:35.545Z,360
2017-02-06T10:18:36.019Z,368
2017-02-06T10:19:36.052Z,356
2017-02-06T10:20:35.584Z,396
2017-02-06T10:21:35.593Z,384
2017-02-06T10:22:36.066Z,352
2017-02-06T10:23:36.075Z,328
2017-02-06T10:24:36.085Z,328
2017-02-06T10:25:36.054Z,328
2017-02-06T10:26:36.093Z,316
2017-02-06T10:27:36.101Z,288
2017-02-06T10:28:35.286Z,348
2017-02-06T10:29:35.719Z,356
2017-02-06T10:30:36.106Z,332
2017-02-06T10:31:35.323Z,332
2017-02-06T10:32:35.734Z,336
2017-02-06T10:33:36.134Z,344
2017-02-06T10:34:35.853Z,356
2017-02-06T10:35:35.889Z,372
2017-02-06T10:36:36.183Z,404
2017-02-06T10:37:35.905Z,404
2017-02-06T10:38:36.202Z,400
2017-02-06T10:39:36.221Z,408
2017-02-06T10:40:35.932Z,416
2017-02-06T10:41:36.238Z,456
2017-02-06T10:42:36.252Z,452
2017-02-06T10:43:36.391Z,472
2017-02-06T10:44:36.399Z,496
2017-02-06T10:45:36.410Z,516
2017-02-06T10:46:36.308Z,484
2017-02-06T10:47:36.322Z,452
2017-02-06T10:48:36.440Z,444
2017-02-06T10:49:36.456Z,444
2017-02-06T10:50:36.470Z,428
2017-02-06T10:51:36.370Z,400
2017-02-06T10:52:36.502Z,412
2017-02-06T10:53:36.510Z,408
2017-02-06T10:54:36.524Z,384
2017-02-06T10:55:36.521Z,380
2017-02-06T10:56:36.489Z,376
2017-02-06T10:57:36.556Z,376
2017-02-06T10:58:36.623Z,348
2017-02-06T10:59:36.555Z,376
2017-02-06T11:00:36.596Z,340
2017-02-06T11:01:36.500Z,356
2017-02-06T11:02:36.616Z,360
2017-02-06T11:03:36.525Z,372
2017-02-06T11:04:36.649Z,352
2017-02-06T11:05:36.550Z,384
2017-02-06T11:06:36.560Z,356
2017-02-06T11:07:36.609Z,368
2017-02-06T11:08:36.711Z,360
2017-02-06T11:09:36.791Z,328
2017-02-06T11:10:36.723Z,368
2017-02-06T11:11:36.621Z,332
2017-02-06T11:12:36.635Z,324
2017-02-06T11:13:36.647Z,364
2017-02-06T11:14:36.659Z,400
2017-02-06T11:15:36.791Z,372
2017-02-06T11:16:36.803Z,356
2017-02-06T11:17:36.823Z,336
2017-02-06T11:18:36.820Z,364
2017-02-06T11:19:36.414Z,352
2017-02-06T11:20:36.845Z,420
2017-02-06T11:21:36.448Z,416
2017-02-06T11:22:36.858Z,388
2017-02-06T11:23:36.864Z,380
2017-02-06T11:24:36.915Z,384
2017-02-06T11:25:37.009Z,364
2017-02-06T11:26:36.505Z,376
2017-02-06T11:27:36.921Z,340
2017-02-06T11:28:37.034Z,404
2017-02-06T11:29:36.861Z,424
2017-02-06T11:30:36.872Z,400
2017-02-06T11:31:36.877Z,384
2017-02-06T11:32:36.893Z,388
2017-02-06T11:33:36.913Z,340
2017-02-06T11:34:36.914Z,320
2017-02-06T11:35:36.933Z,308
2017-02-06T11:36:36.949Z,328
2017-02-06T11:37:36.961Z,364
2017-02-06T11:38:36.980Z,364
2017-02-06T11:39:36.984Z,364
2017-02-06T11:40:36.998Z,332
2017-02-06T11:41:37.011Z,344
2017-02-06T11:42:37.026Z,340
2017-02-06T11:43:37.040Z,344
2017-02-06T11:44:37.050Z,340
2017-02-06T11:45:37.055Z,312
2017-02-06T11:46:37.072Z,308
2017-02-06T11:47:37.085Z,332
2017-02-06T11:48:37.103Z,300
2017-02-06T11:49:37.113Z,316
2017-02-06T11:50:37.314Z,316
2017-02-06T11:51:37.136Z,304
2017-02-06T11:52:37.151Z,328
2017-02-06T11:53:37.159Z,304
2017-02-06T11:54:37.174Z,292
2017-02-06T11:55:37.189Z,276
2017-02-06T11:56:37.195Z,284
2017-02-06T11:57:37.212Z,300
2017-02-06T11:58:37.223Z,304
2017-02-06T11:59:37.239Z,324
2017-02-06T12:00:37.246Z,356
2017-02-06T12:01:37.265Z,328
2017-02-06T12:02:37.281Z,320
2017-02-06T12:03:37.300Z,320
2017-02-06T12:04:37.305Z,284
2017-02-06T12:05:37.314Z,276
2017-02-06T12:06:37.329Z,300
2017-02-06T12:07:37.341Z,328
2017-02-06T12:08:37.362Z,276
2017-02-06T12:09:37.366Z,284
2017-02-06T12:10:37.381Z,308
2017-02-06T12:11:37.393Z,304
2017-02-06T12:12:37.401Z,328
2017-02-06T12:13:37.412Z,320
2017-02-06T12:14:37.433Z,328
2017-02-06T12:15:37.442Z,332
2017-02-06T12:16:37.455Z,288
2017-02-06T12:17:37.471Z,284
2017-02-06T12:18:37.479Z,312
2017-02-06T12:19:37.494Z,336
2017-02-06T12:20:37.509Z,340
2017-02-06T12:21:37.526Z,312
2017-02-06T12:22:37.533Z,300
2017-02-06T12:23:37.548Z,284
2017-02-06T12:24:37.552Z,280
2017-02-06T12:25:37.566Z,308
2017-02-06T12:26:37.583Z,288
2017-02-06T12:27:37.599Z,276
2017-02-06T12:28:37.609Z,288
2017-02-06T12:29:37.621Z,292
2017-02-06T12:30:37.635Z,308
2017-02-06T12:31:37.647Z,352
2017-02-06T12:32:37.661Z,304
2017-02-06T12:33:37.675Z,252
2017-02-06T12:34:37.680Z,248
2017-02-06T12:35:37.699Z,284
2017-02-06T12:36:37.714Z,280
2017-02-06T12:37:37.722Z,276
2017-02-06T12:38:37.748Z,276
2017-02-06T12:39:37.749Z,268
2017-02-06T12:40:37.764Z,256
2017-02-06T12:41:37.776Z,288
2017-02-06T12:42:37.438Z,272
2017-02-06T12:43:37.802Z,268
2017-02-06T12:44:37.813Z,324
2017-02-06T12:45:37.824Z,304
2017-02-06T12:46:37.444Z,368
2017-02-06T12:47:37.861Z,336
2017-02-06T12:48:37.860Z,336
2017-02-06T12:49:37.875Z,344
2017-02-06T12:50:37.891Z,320
2017-02-06T12:51:37.902Z,356
2017-02-06T12:52:37.914Z,340
2017-02-06T12:53:37.927Z,324
2017-02-06T12:54:37.938Z,392
2017-02-06T12:55:37.956Z,364
2017-02-06T12:56:37.959Z,336
2017-02-06T12:57:37.977Z,368
2017-02-06T12:58:37.985Z,344
2017-02-06T12:59:37.998Z,288
2017-02-06T13:00:38.014Z,288
2017-02-06T13:01:38.037Z,288
2017-02-06T13:02:38.040Z,260
2017-02-06T13:03:38.052Z,252
2017-02-06T13:04:38.192Z,220
2017-02-06T13:05:38.081Z,200
2017-02-06T13:06:37.702Z,196
2017-02-06T13:07:38.108Z,208
2017-02-06T13:08:37.722Z,180
2017-02-06T13:09:37.734Z,168
2017-02-06T13:10:38.138Z,168
2017-02-06T13:11:37.764Z,160
2017-02-06T13:12:38.174Z,148
2017-02-06T13:13:37.783Z,152
2017-02-06T13:14:38.193Z,152
2017-02-06T13:15:38.211Z,188
2017-02-06T13:16:37.823Z,164
2017-02-06T13:17:38.227Z,160
2017-02-06T13:18:37.842Z,140
2017-02-06T13:19:37.976Z,132
2017-02-06T13:20:37.989Z,136
2017-02-06T13:21:37.987Z,148
2017-02-06T13:22:38.393Z,148
2017-02-06T13:23:38.398Z,160
2017-02-06T13:24:38.322Z,156
2017-02-06T13:25:38.449Z,168
2017-02-06T13:26:38.347Z,176
2017-02-06T13:27:37.963Z,200
2017-02-06T13:28:38.373Z,208
2017-02-06T13:29:38.385Z,208
2017-02-06T13:30:38.391Z,208
2017-02-06T13:31:38.400Z,192
2017-02-06T13:32:38.144Z,200
2017-02-06T13:33:37.645Z,208
2017-02-06T13:34:38.164Z,196
2017-02-06T13:35:38.462Z,216
2017-02-06T13:36:38.469Z,196
2017-02-06T13:37:38.603Z,192
2017-02-06T13:38:38.605Z,188
2017-02-06T13:39:38.120Z,204
2017-02-06T13:40:38.641Z,216
2017-02-06T13:41:38.226Z,212
2017-02-06T13:42:38.543Z,188
2017-02-06T13:43:38.164Z,212
2017-02-06T13:44:38.179Z,180
2017-02-06T13:45:38.594Z,204
2017-02-06T13:46:38.717Z,216
2017-02-06T13:47:38.657Z,200
2017-02-06T13:48:38.623Z,224
2017-02-06T13:49:38.748Z,244
2017-02-06T13:50:38.722Z,240
2017-02-06T13:51:38.267Z,200
2017-02-06T13:52:38.745Z,208
2017-02-06T13:53:38.291Z,224
2017-02-06T13:54:38.305Z,216
2017-02-06T13:55:38.712Z,208
2017-02-06T13:56:38.840Z,184
2017-02-06T13:57:38.857Z,208
2017-02-06T13:58:38.758Z,236
2017-02-06T13:59:38.828Z,236
2017-02-06T14:00:38.776Z,232
2017-02-06T14:01:38.790Z,232
2017-02-06T14:02:38.910Z,248
2017-02-06T14:03:39.007Z,252
2017-02-06T14:04:38.993Z,216
2017-02-06T14:05:38.949Z,212
2017-02-06T14:06:38.852Z,216
2017-02-06T14:07:38.979Z,192
2017-02-06T14:08:38.877Z,180
2017-02-06T14:09:38.890Z,164
2017-02-06T14:10:38.923Z,136
2017-02-06T14:11:38.642Z,136
2017-02-06T14:12:39.118Z,136
2017-02-06T14:13:38.938Z,148
2017-02-06T14:14:39.070Z,136
2017-02-06T14:15:38.965Z,144
2017-02-06T14:16:39.077Z,144